Time;durP1;ratioP1;P1;durP2;ratioP2;P2;SDS_P1;SDS_P2;PMS_P1;PMS_P2;Temp;Humidity;BMP_temperature;BMP_pressure;BME280_temperature;BME280_humidity;BME280_pressure;Samples;Min_cycle;Max_cycle;Signal;HPM_P1;HPM_P2
2022/02/23 00:00:35;;;;;;;79.33;17.83;;;6.20;99.90;;;;;;5044500;28;20423;-84
2022/02/23 00:03:04;;;;;;;140.93;26.63;;;6.20;99.90;;;;;;5042643;28;20497;-84
2022/02/23 00:05:33;;;;;;;139.37;20.93;;;6.20;99.90;;;;;;5039151;28;20486;-84
2022/02/23 00:08:02;;;;;;;115.57;18.03;;;6.20;99.90;;;;;;5023072;28;20645;-84
2022/02/23 00:10:30;;;;;;;239.27;28.53;;;6.20;99.90;;;;;;5033106;28;20466;-83
2022/02/23 00:12:59;;;;;;;100.53;26.30;;;6.20;99.90;;;;;;5043267;28;20469;-84
2022/02/23 00:15:27;;;;;;;237.97;31.77;;;6.10;99.90;;;;;;5078122;28;20458;-84
2022/02/23 00:17:57;;;;;;;116.80;18.40;;;6.10;99.90;;;;;;5064821;28;20442;-84
2022/02/23 00:20:25;;;;;;;196.67;28.37;;;6.10;99.90;;;;;;5060950;28;20458;-84
2022/02/23 00:22:53;;;;;;;182.40;31.00;;;6.10;99.90;;;;;;5057606;28;20526;-84
2022/02/23 00:25:22;;;;;;;184.00;26.70;;;6.10;99.90;;;;;;5058067;28;20667;-83
2022/02/23 00:27:50;;;;;;;140.63;21.63;;;6.10;99.90;;;;;;5056174;28;20433;-84
2022/02/23 00:30:19;;;;;;;103.80;20.60;;;6.10;99.90;;;;;;5079300;28;20925;-84
2022/02/23 00:32:47;;;;;;;177.63;20.67;;;6.00;99.90;;;;;;5080761;28;20474;-84
2022/02/23 00:35:17;;;;;;;171.47;16.17;;;6.10;99.90;;;;;;5048734;28;20481;-83
2022/02/23 00:37:48;;;;;;;125.40;18.37;;;6.10;99.90;;;;;;5045679;28;20867;-83
2022/02/23 00:40:16;;;;;;;192.87;31.53;;;6.10;99.90;;;;;;5066122;28;20459;-84
2022/02/23 00:42:45;;;;;;;227.33;23.83;;;6.10;99.90;;;;;;5046577;28;20465;-84
2022/02/23 00:45:13;;;;;;;172.27;31.20;;;6.10;99.90;;;;;;5046941;28;20511;-84
2022/02/23 00:47:41;;;;;;;115.20;21.73;;;6.10;99.90;;;;;;5046974;28;20453;-84
2022/02/23 00:50:10;;;;;;;176.37;24.67;;;6.10;99.90;;;;;;5047624;28;20466;-84
2022/02/23 00:52:40;;;;;;;181.67;19.80;;;6.00;99.90;;;;;;5064951;28;20458;-84
2022/02/23 00:55:09;;;;;;;113.83;22.33;;;6.00;99.90;;;;;;5047509;28;20859;-84
2022/02/23 00:57:37;;;;;;;210.87;30.10;;;6.10;99.90;;;;;;5047455;28;20485;-84
2022/02/23 01:00:10;;;;;;;140.57;21.40;;;6.00;99.90;;;;;;5081268;28;20450;-84
2022/02/23 01:02:40;;;;;;;76.57;20.77;;;6.00;99.90;;;;;;5044345;28;20510;-83
2022/02/23 01:05:09;;;;;;;68.10;31.30;;;6.00;99.90;;;;;;5069768;28;20442;-83
2022/02/23 01:07:39;;;;;;;230.63;30.47;;;6.00;99.90;;;;;;5044208;28;20455;-84
2022/02/23 01:10:09;;;;;;;88.63;41.13;;;6.00;99.90;;;;;;5027155;28;20464;-83
2022/02/23 01:12:38;;;;;;;195.90;27.10;;;6.00;99.90;;;;;;5043662;28;20509;-83
2022/02/23 01:15:07;;;;;;;153.07;16.20;;;6.00;99.90;;;;;;5026749;28;20479;-83
2022/02/23 01:17:36;;;;;;;138.77;22.80;;;6.00;99.90;;;;;;5043876;28;20443;-83
2022/02/23 01:20:05;;;;;;;103.37;17.07;;;6.00;99.90;;;;;;5014520;28;20455;-83
2022/02/23 01:22:34;;;;;;;159.43;22.73;;;6.00;99.90;;;;;;5040035;28;20536;-83
2022/02/23 01:25:05;;;;;;;180.80;21.70;;;6.00;99.90;;;;;;5040867;28;20462;-83
2022/02/23 01:27:33;;;;;;;108.27;34.83;;;6.00;99.90;;;;;;5045032;28;20423;-84
2022/02/23 01:30:02;;;;;;;165.57;27.57;;;6.00;99.90;;;;;;5043625;28;20475;-83
2022/02/23 01:32:31;;;;;;;154.20;19.63;;;6.00;99.90;;;;;;5044300;28;20478;-83
2022/02/23 01:34:59;;;;;;;155.90;21.83;;;6.00;99.90;;;;;;5043983;28;20460;-83
2022/02/23 01:37:27;;;;;;;129.93;20.60;;;6.00;99.90;;;;;;5020906;28;20474;-83
2022/02/23 01:39:55;;;;;;;156.90;21.80;;;5.90;99.90;;;;;;5045315;28;20478;-83
2022/02/23 01:42:25;;;;;;;181.53;23.00;;;5.90;99.90;;;;;;5048402;28;20466;-84
2022/02/23 01:44:54;;;;;;;91.63;29.70;;;5.90;99.90;;;;;;5047534;28;20458;-83
2022/02/23 01:47:22;;;;;;;107.13;22.27;;;5.90;99.90;;;;;;5051687;28;20814;-83
2022/02/23 01:49:51;;;;;;;89.93;35.07;;;5.90;99.90;;;;;;5045802;28;20481;-83
2022/02/23 01:52:19;;;;;;;65.10;18.53;;;5.90;99.90;;;;;;5046028;28;20525;-83
2022/02/23 01:54:47;;;;;;;133.93;20.77;;;5.90;99.90;;;;;;5048396;28;20478;-83
2022/02/23 01:57:16;;;;;;;183.03;26.30;;;5.90;99.90;;;;;;5050690;28;20456;-83
2022/02/23 01:59:46;;;;;;;181.90;21.53;;;5.90;99.90;;;;;;5048842;28;20446;-83
2022/02/23 02:02:14;;;;;;;114.30;17.43;;;5.90;99.90;;;;;;5049305;28;20462;-83
2022/02/23 02:04:42;;;;;;;149.90;20.43;;;5.90;99.90;;;;;;5066972;28;20445;-83
2022/02/23 02:07:11;;;;;;;33.83;9.97;;;5.90;99.90;;;;;;5033540;28;20461;-83
2022/02/23 02:09:40;;;;;;;220.60;27.07;;;5.90;99.90;;;;;;5040597;28;20475;-83
2022/02/23 02:12:09;;;;;;;136.30;21.93;;;5.90;99.90;;;;;;5008549;28;20526;-83
2022/02/23 02:14:37;;;;;;;110.03;20.43;;;5.90;99.90;;;;;;5042685;28;20444;-83
2022/02/23 02:17:07;;;;;;;244.23;38.43;;;6.00;99.90;;;;;;5024534;28;20475;-83
2022/02/23 02:19:35;;;;;;;148.53;20.83;;;5.90;99.90;;;;;;5026765;28;20459;-83
2022/02/23 02:22:08;;;;;;;150.93;23.23;;;6.00;99.90;;;;;;5008840;28;20476;-83
2022/02/23 02:24:38;;;;;;;104.23;15.63;;;6.00;99.90;;;;;;5026378;28;20436;-83
2022/02/23 02:27:09;;;;;;;202.60;27.97;;;5.90;99.90;;;;;;5042154;28;20446;-83
2022/02/23 02:29:38;;;;;;;204.47;30.10;;;6.00;99.90;;;;;;5047402;28;20465;-83
2022/02/23 02:32:07;;;;;;;134.03;28.07;;;5.90;99.90;;;;;;5028480;28;20502;-83
2022/02/23 02:34:36;;;;;;;203.77;27.63;;;5.90;99.90;;;;;;5045587;28;20466;-83
2022/02/23 02:37:07;;;;;;;85.53;21.30;;;5.90;99.90;;;;;;5045885;28;20439;-83
2022/02/23 02:39:35;;;;;;;53.67;9.87;;;5.90;99.90;;;;;;5046730;28;20478;-83
2022/02/23 02:42:05;;;;;;;180.70;18.20;;;5.90;99.90;;;;;;5044640;28;20462;-83
2022/02/23 02:44:34;;;;;;;127.53;31.00;;;5.80;99.90;;;;;;5045976;28;20447;-83
2022/02/23 02:47:04;;;;;;;207.60;43.13;;;5.80;99.90;;;;;;5045403;28;20958;-83
2022/02/23 02:49:32;;;;;;;181.30;36.63;;;5.80;99.90;;;;;;5028088;28;20451;-83
2022/02/23 02:52:03;;;;;;;52.33;35.00;;;5.80;99.90;;;;;;5059146;28;20482;-83
2022/02/23 02:54:33;;;;;;;87.37;30.87;;;5.80;99.90;;;;;;5078944;28;20446;-82
2022/02/23 02:57:01;;;;;;;137.40;20.53;;;5.80;99.90;;;;;;5044184;28;20478;-83
2022/02/23 02:59:30;;;;;;;106.10;17.53;;;5.70;99.90;;;;;;5046245;28;20462;-83
2022/02/23 03:01:59;;;;;;;111.80;28.83;;;5.70;99.90;;;;;;5044499;28;20470;-83
2022/02/23 03:04:27;;;;;;;97.70;33.00;;;5.70;99.90;;;;;;5060924;28;20447;-83
2022/02/23 03:06:55;;;;;;;56.37;42.87;;;5.70;99.90;;;;;;5030841;28;20961;-83
2022/02/23 03:09:24;;;;;;;109.93;56.23;;;5.70;99.90;;;;;;5024925;28;20463;-83
2022/02/23 03:11:54;;;;;;;180.93;29.17;;;5.60;99.90;;;;;;5008178;28;20538;-83
2022/02/23 03:14:22;;;;;;;146.53;49.20;;;5.60;99.90;;;;;;5025073;28;20439;-83
2022/02/23 03:16:51;;;;;;;98.47;39.77;;;5.60;99.90;;;;;;5007890;28;20550;-83
2022/02/23 03:19:19;;;;;;;97.40;21.50;;;5.60;99.90;;;;;;5024551;28;20471;-83
2022/02/23 03:21:47;;;;;;;94.37;83.10;;;5.60;99.90;;;;;;5072547;28;20485;-83
2022/02/23 03:24:16;;;;;;;54.87;33.47;;;5.60;99.90;;;;;;5062194;28;20501;-83
2022/02/23 03:26:44;;;;;;;89.13;82.80;;;5.50;99.90;;;;;;5065773;28;20458;-83
2022/02/23 03:29:14;;;;;;;147.10;40.77;;;5.50;99.90;;;;;;5047378;28;20450;-83
2022/02/23 03:31:42;;;;;;;103.67;28.87;;;5.50;99.90;;;;;;5047182;28;20489;-83
2022/02/23 03:34:10;;;;;;;178.43;20.13;;;5.50;99.90;;;;;;5047367;28;20465;-83
2022/02/23 03:36:39;;;;;;;64.90;41.10;;;5.50;99.90;;;;;;5046634;28;20458;-83
2022/02/23 03:39:07;;;;;;;508.30;121.50;;;5.50;99.90;;;;;;5047432;28;20454;-83
2022/02/23 03:41:36;;;;;;;105.23;57.40;;;5.50;99.90;;;;;;5064532;28;20477;-83
2022/02/23 03:44:05;;;;;;;131.47;40.20;;;5.50;99.90;;;;;;5045960;28;20503;-83
2022/02/23 03:46:35;;;;;;;88.23;39.20;;;5.50;99.90;;;;;;5037007;28;20454;-83
2022/02/23 03:49:03;;;;;;;95.53;68.30;;;5.50;99.90;;;;;;5038620;28;20485;-83
2022/02/23 03:51:32;;;;;;;75.43;32.07;;;5.50;99.90;;;;;;5041449;28;20481;-83
2022/02/23 03:54:00;;;;;;;56.27;51.23;;;5.40;99.90;;;;;;5064547;28;20454;-83
2022/02/23 03:56:42;;;;;;;146.77;131.83;;;5.40;99.90;;;;;;5065666;28;20450;-83
2022/02/23 03:59:13;;;;;;;1999.90;623.17;;;5.40;99.90;;;;;;5046912;28;20820;-83
2022/02/23 04:01:46;;;;;;;138.20;114.37;;;5.40;99.90;;;;;;5046037;28;20566;-83
2022/02/23 04:04:16;;;;;;;1999.90;533.03;;;5.40;99.90;;;;;;5046319;28;20478;-83
2022/02/23 04:06:45;;;;;;;69.63;64.20;;;5.40;99.90;;;;;;5051600;28;20450;-82
2022/02/23 04:09:14;;;;;;;111.13;96.20;;;5.40;99.90;;;;;;5045596;28;20454;-83
2022/02/23 04:11:45;;;;;;;74.27;36.80;;;5.40;99.90;;;;;;5049835;28;20477;-81
2022/02/23 04:14:15;;;;;;;78.27;70.33;;;5.30;99.90;;;;;;5051014;28;20458;-81
2022/02/23 04:16:47;;;;;;;81.37;46.90;;;5.30;99.90;;;;;;5069095;28;20426;-81
2022/02/23 04:19:16;;;;;;;154.90;72.07;;;5.40;99.90;;;;;;5084648;28;20438;-81
2022/02/23 04:21:47;;;;;;;125.23;41.20;;;5.30;99.90;;;;;;5051146;28;20500;-81
2022/02/23 04:24:16;;;;;;;141.07;127.57;;;5.30;99.90;;;;;;5049492;28;20454;-81
2022/02/23 04:26:44;;;;;;;50.83;43.77;;;5.30;99.90;;;;;;5044138;28;20462;-80
2022/02/23 04:29:13;;;;;;;133.07;116.70;;;5.30;99.90;;;;;;5045847;28;20471;-80
2022/02/23 04:31:43;;;;;;;100.10;87.07;;;5.30;99.90;;;;;;5084304;28;21002;-81
2022/02/23 04:34:13;;;;;;;63.00;48.90;;;5.30;99.90;;;;;;5050959;28;20442;-81
2022/02/23 04:36:42;;;;;;;92.97;86.40;;;5.30;99.90;;;;;;5068882;28;20453;-80
2022/02/23 04:39:27;;;;;;;81.70;76.17;;;5.30;99.90;;;;;;5084688;28;20446;-81
2022/02/23 04:41:56;;;;;;;61.03;56.67;;;5.30;99.90;;;;;;5051438;28;20468;-80
2022/02/23 04:44:25;;;;;;;149.40;107.97;;;5.20;99.90;;;;;;5052612;28;20453;-81
2022/02/23 04:46:55;;;;;;;154.77;88.93;;;5.20;99.90;;;;;;5050816;28;20457;-81
2022/02/23 04:49:25;;;;;;;122.73;98.97;;;5.20;99.90;;;;;;5051094;28;20438;-81
2022/02/23 04:51:55;;;;;;;157.67;62.43;;;5.20;99.90;;;;;;5051169;28;20476;-81
2022/02/23 04:54:24;;;;;;;82.07;76.10;;;5.20;99.90;;;;;;5068613;28;20465;-81
2022/02/23 04:56:52;;;;;;;74.83;69.37;;;5.10;99.90;;;;;;5084611;28;20529;-81
2022/02/23 04:59:21;;;;;;;129.33;120.43;;;5.20;99.90;;;;;;5051372;28;20545;-80
2022/02/23 05:01:50;;;;;;;238.93;155.70;;;5.10;99.90;;;;;;5068773;28;20466;-81
2022/02/23 05:04:20;;;;;;;149.73;137.50;;;5.10;99.90;;;;;;5051390;28;20445;-81
2022/02/23 05:06:50;;;;;;;93.23;87.53;;;5.10;99.90;;;;;;5050723;28;20454;-81
2022/02/23 05:09:19;;;;;;;99.73;77.57;;;5.10;99.90;;;;;;5068936;28;20824;-81
2022/02/23 05:11:47;;;;;;;149.73;140.70;;;5.10;99.90;;;;;;5050777;28;20537;-81
2022/02/23 05:14:16;;;;;;;107.67;98.90;;;5.10;99.90;;;;;;5072172;28;20441;-81
2022/02/23 05:16:44;;;;;;;85.27;79.03;;;5.00;99.90;;;;;;5053749;28;20507;-80
2022/02/23 05:19:13;;;;;;;1401.13;442.57;;;5.00;99.90;;;;;;5054206;28;20456;-81
2022/02/23 05:21:42;;;;;;;41.03;37.53;;;5.00;99.90;;;;;;5054065;28;20526;-81
2022/02/23 05:24:17;;;;;;;50.57;46.37;;;5.00;99.90;;;;;;5088188;28;20437;-80
2022/02/23 05:26:45;;;;;;;98.97;44.27;;;5.00;99.90;;;;;;5071659;28;20453;-81
2022/02/23 05:29:14;;;;;;;69.00;35.33;;;5.00;99.90;;;;;;5054150;28;20521;-81
2022/02/23 05:31:43;;;;;;;765.53;195.47;;;5.00;99.90;;;;;;5054047;28;20839;-81
2022/02/23 05:34:11;;;;;;;129.27;22.97;;;5.00;99.90;;;;;;5054232;28;20476;-81
2022/02/23 05:36:40;;;;;;;54.73;50.60;;;5.00;99.90;;;;;;5071297;28;20789;-81
2022/02/23 05:39:08;;;;;;;79.67;73.63;;;5.00;99.90;;;;;;5069354;28;20472;-80
2022/02/23 05:41:38;;;;;;;45.77;39.20;;;5.00;99.90;;;;;;5050999;28;20474;-80
2022/02/23 05:44:07;;;;;;;46.97;42.90;;;4.90;99.90;;;;;;5053045;28;20511;-81
2022/02/23 05:46:36;;;;;;;1999.90;623.67;;;4.90;99.90;;;;;;5053303;28;20449;-81
2022/02/23 05:49:05;;;;;;;57.33;52.43;;;4.90;99.90;;;;;;5053520;28;20442;-81
2022/02/23 05:51:36;;;;;;;76.40;71.43;;;4.90;99.90;;;;;;5070580;28;20500;-81
2022/02/23 05:54:06;;;;;;;42.83;37.77;;;4.90;99.90;;;;;;5086559;28;20506;-81
2022/02/23 05:56:35;;;;;;;1027.73;386.17;;;4.90;99.90;;;;;;5053111;28;20449;-81
2022/02/23 05:59:05;;;;;;;64.97;52.03;;;4.90;99.90;;;;;;5087152;28;20450;-81
2022/02/23 06:01:34;;;;;;;72.73;27.00;;;4.90;99.90;;;;;;5053819;28;20467;-81
2022/02/23 06:04:03;;;;;;;45.87;41.63;;;4.90;99.90;;;;;;5053974;28;20445;-81
2022/02/23 06:06:32;;;;;;;142.87;31.07;;;4.90;99.90;;;;;;5053928;28;20504;-81
2022/02/23 06:09:00;;;;;;;52.33;48.33;;;4.90;99.90;;;;;;5053577;28;20452;-80
2022/02/23 06:11:29;;;;;;;85.37;40.53;;;4.90;99.90;;;;;;5054187;28;20545;-80
2022/02/23 06:13:57;;;;;;;96.13;22.67;;;4.90;99.90;;;;;;5053556;28;20476;-81
2022/02/23 06:16:27;;;;;;;34.63;31.27;;;4.90;99.90;;;;;;5054263;28;20446;-81
2022/02/23 06:18:56;;;;;;;45.67;35.53;;;4.90;99.90;;;;;;5070551;28;20437;-81
2022/02/23 06:21:25;;;;;;;979.57;342.03;;;4.90;99.90;;;;;;5052225;28;20488;-80
2022/02/23 06:23:54;;;;;;;175.00;38.50;;;4.90;99.90;;;;;;5051553;28;20450;-80
2022/02/23 06:26:26;;;;;;;121.77;33.00;;;4.90;99.90;;;;;;5052896;28;20446;-80
2022/02/23 06:28:54;;;;;;;43.20;37.50;;;4.90;99.90;;;;;;5053199;28;20446;-80
2022/02/23 06:31:24;;;;;;;205.57;39.87;;;4.90;99.90;;;;;;5052963;28;20461;-81
2022/02/23 06:33:53;;;;;;;49.50;45.20;;;4.90;99.90;;;;;;5053906;28;20478;-81
2022/02/23 06:36:24;;;;;;;98.57;30.73;;;4.90;99.90;;;;;;5072232;28;20423;-81
2022/02/23 06:38:54;;;;;;;49.50;40.07;;;4.90;99.90;;;;;;5071630;28;20463;-80
2022/02/23 06:41:26;;;;;;;172.67;28.60;;;4.90;99.90;;;;;;5071736;28;20465;-81
2022/02/23 06:43:55;;;;;;;171.53;28.60;;;4.90;99.90;;;;;;5053490;28;20448;-80
2022/02/23 06:46:24;;;;;;;75.37;20.40;;;4.90;99.90;;;;;;5086056;28;20479;-81
2022/02/23 06:48:54;;;;;;;88.10;20.47;;;4.90;99.90;;;;;;5052635;28;20503;-80
2022/02/23 06:51:24;;;;;;;79.13;26.67;;;4.90;99.90;;;;;;5086036;28;20473;-80
2022/02/23 06:53:52;;;;;;;100.73;94.17;;;4.90;99.90;;;;;;5070822;28;20492;-81
2022/02/23 06:56:21;;;;;;;129.03;43.23;;;4.90;99.90;;;;;;5052830;28;20477;-80
2022/02/23 06:58:51;;;;;;;55.57;27.63;;;5.00;99.90;;;;;;5052278;28;20960;-81
2022/02/23 07:01:21;;;;;;;84.57;32.87;;;5.00;99.90;;;;;;5051971;28;20468;-80
2022/02/23 07:03:53;;;;;;;284.23;187.00;;;5.00;99.90;;;;;;5086297;28;20450;-80
2022/02/23 07:06:23;;;;;;;84.13;31.13;;;5.00;99.90;;;;;;5070469;28;20457;-81
2022/02/23 07:08:52;;;;;;;33.27;30.60;;;5.00;99.90;;;;;;5053690;28;20522;-80
2022/02/23 07:11:21;;;;;;;40.77;36.87;;;5.00;99.90;;;;;;5086689;28;20480;-80
2022/02/23 07:13:50;;;;;;;151.67;34.63;;;5.00;99.90;;;;;;5070435;28;20477;-81
2022/02/23 07:16:23;;;;;;;200.00;26.07;;;5.00;99.90;;;;;;5070595;28;20589;-80
2022/02/23 07:18:52;;;;;;;243.87;34.90;;;5.00;99.90;;;;;;5052662;28;20450;-81
2022/02/23 07:21:20;;;;;;;38.50;34.90;;;5.00;99.90;;;;;;5069391;28;20453;-80
2022/02/23 07:23:50;;;;;;;83.00;31.10;;;5.00;99.90;;;;;;5051621;28;20525;-81
2022/02/23 07:26:19;;;;;;;118.70;26.87;;;5.00;99.90;;;;;;5051926;28;20449;-81
2022/02/23 07:28:49;;;;;;;135.87;22.73;;;5.00;99.90;;;;;;5052411;28;20452;-80
2022/02/23 07:31:18;;;;;;;140.27;33.13;;;5.00;99.90;;;;;;5085545;28;20519;-81
2022/02/23 07:33:47;;;;;;;29.10;26.47;;;5.10;99.90;;;;;;5086100;28;20457;-80
2022/02/23 07:36:17;;;;;;;88.87;32.30;;;5.10;99.90;;;;;;5051719;28;20449;-80
2022/02/23 07:38:47;;;;;;;86.23;28.63;;;5.10;99.90;;;;;;5080261;28;20457;-82
2022/02/23 07:41:22;;;;;;;47.33;43.27;;;5.20;99.90;;;;;;5047633;28;20521;-83
2022/02/23 07:44:11;;;;;;;100.20;43.80;;;5.20;99.90;;;;;;5047331;28;20905;-83
2022/02/23 07:46:40;;;;;;;136.57;29.17;;;5.30;99.90;;;;;;5065906;28;20444;-83
2022/02/23 07:49:08;;;;;;;87.67;25.87;;;5.30;99.90;;;;;;5047081;28;20508;-83
2022/02/23 07:51:37;;;;;;;123.13;23.30;;;5.40;99.90;;;;;;5046430;28;20462;-83
2022/02/23 07:54:06;;;;;;;64.10;29.67;;;5.40;99.90;;;;;;5046870;28;20474;-83
2022/02/23 07:56:36;;;;;;;171.00;27.63;;;5.50;99.90;;;;;;5064852;28;20438;-83
2022/02/23 07:59:04;;;;;;;197.97;22.57;;;5.50;99.90;;;;;;5046275;28;20863;-83
2022/02/23 08:01:35;;;;;;;124.93;17.80;;;5.50;99.90;;;;;;5078813;28;20466;-83
2022/02/23 08:04:04;;;;;;;187.73;23.60;;;5.60;99.90;;;;;;5064291;28;20876;-82
2022/02/23 08:06:33;;;;;;;146.47;20.57;;;5.60;99.90;;;;;;5045252;28;20473;-82
2022/02/23 08:09:02;;;;;;;134.53;19.80;;;5.70;99.90;;;;;;5065565;28;20476;-82
2022/02/23 08:11:33;;;;;;;82.87;22.93;;;5.70;99.90;;;;;;5064771;28;20492;-82
2022/02/23 08:14:04;;;;;;;246.77;30.37;;;5.80;99.90;;;;;;5047111;28;20576;-83
2022/02/23 08:19:35;;;;;;;185.17;21.27;;;6.00;99.90;;;;;;5081034;28;20533;-82
2022/02/23 08:22:07;;;;;;;141.90;23.23;;;6.20;99.90;;;;;;5047463;28;20468;-83
2022/02/23 08:24:39;;;;;;;260.67;29.23;;;6.30;99.90;;;;;;5046369;28;20453;-82
2022/02/23 08:27:09;;;;;;;177.40;20.27;;;6.40;99.90;;;;;;5080408;28;20438;-82
2022/02/23 08:29:40;;;;;;;227.00;19.93;;;6.50;99.90;;;;;;5065228;28;20446;-83
2022/02/23 08:32:10;;;;;;;284.50;35.97;;;6.60;99.90;;;;;;5064011;28;20462;-83
2022/02/23 08:34:41;;;;;;;241.97;29.27;;;6.60;99.90;;;;;;5065377;28;20996;-81
2022/02/23 08:37:11;;;;;;;104.53;16.83;;;6.70;99.90;;;;;;5082704;28;20472;-80
2022/02/23 08:39:39;;;;;;;257.97;28.60;;;6.80;99.90;;;;;;5066282;28;20521;-80
2022/02/23 08:42:10;;;;;;;178.03;24.93;;;6.80;99.90;;;;;;5049700;28;20497;-80
2022/02/23 08:44:41;;;;;;;168.53;19.87;;;6.90;99.90;;;;;;5049903;28;20469;-80
2022/02/23 08:47:10;;;;;;;220.67;34.43;;;6.90;99.90;;;;;;5084900;28;20884;-80
2022/02/23 08:49:39;;;;;;;217.97;30.37;;;6.90;99.90;;;;;;5069184;28;20795;-80
2022/02/23 08:52:09;;;;;;;250.63;29.63;;;6.90;99.90;;;;;;5053822;28;20855;-80
2022/02/23 08:54:38;;;;;;;173.33;24.37;;;7.00;99.90;;;;;;5054029;28;20467;-80
2022/02/23 08:57:08;;;;;;;257.47;35.73;;;7.00;99.90;;;;;;5055103;28;20442;-80
2022/02/23 08:59:36;;;;;;;209.67;27.67;;;7.00;99.90;;;;;;5086973;28;20464;-80
2022/02/23 09:02:07;;;;;;;322.40;45.70;;;7.00;99.90;;;;;;5052146;28;20537;-80
2022/02/23 09:04:36;;;;;;;182.60;35.53;;;7.00;99.90;;;;;;5052203;28;20447;-80
2022/02/23 09:07:05;;;;;;;228.70;32.70;;;7.10;99.90;;;;;;5049118;28;20541;-79
2022/02/23 09:09:34;;;;;;;454.33;49.77;;;7.10;99.90;;;;;;5071957;28;20447;-80
2022/02/23 09:12:03;;;;;;;462.63;60.70;;;7.10;99.90;;;;;;5052422;28;21069;-80
2022/02/23 09:14:32;;;;;;;232.07;38.33;;;7.10;99.90;;;;;;5085969;28;21052;-80
2022/02/23 09:17:01;;;;;;;282.77;36.57;;;7.10;99.90;;;;;;5072049;28;20531;-81
2022/02/23 09:19:31;;;;;;;358.30;35.07;;;7.20;99.90;;;;;;5071481;28;20454;-80
2022/02/23 09:21:59;;;;;;;160.20;29.10;;;7.20;99.90;;;;;;5087779;28;20498;-81
2022/02/23 09:24:28;;;;;;;350.27;46.37;;;7.20;99.90;;;;;;5070739;28;20524;-81
2022/02/23 09:26:56;;;;;;;407.53;61.80;;;7.30;99.90;;;;;;5054870;28;20496;-81
2022/02/23 09:29:26;;;;;;;278.90;39.63;;;7.30;99.90;;;;;;5050843;28;20473;-80
2022/02/23 09:31:55;;;;;;;433.43;47.80;;;7.30;99.90;;;;;;5069592;28;20456;-80
2022/02/23 09:34:24;;;;;;;286.73;39.17;;;7.40;99.90;;;;;;5051855;28;20465;-80
2022/02/23 09:36:53;;;;;;;349.90;38.93;;;7.40;99.90;;;;;;5052533;28;20822;-80
2022/02/23 09:39:22;;;;;;;389.47;48.53;;;7.40;99.90;;;;;;5054203;28;20462;-81
2022/02/23 09:41:52;;;;;;;297.63;57.57;;;7.50;99.90;;;;;;5053881;28;20473;-81
2022/02/23 09:44:21;;;;;;;360.07;43.83;;;7.50;99.90;;;;;;5054788;28;20436;-81
2022/02/23 09:46:50;;;;;;;249.57;48.13;;;7.50;99.90;;;;;;5087362;28;20506;-81
2022/02/23 09:49:19;;;;;;;432.47;40.60;;;7.60;99.90;;;;;;5054631;28;20845;-81
2022/02/23 09:51:47;;;;;;;257.17;40.77;;;7.60;99.90;;;;;;5054093;28;20551;-81
2022/02/23 09:54:18;;;;;;;353.93;43.67;;;7.60;99.90;;;;;;5085506;28;20467;-81
2022/02/23 09:56:46;;;;;;;497.17;56.60;;;7.70;99.90;;;;;;5052010;28;20443;-81
2022/02/23 09:59:17;;;;;;;310.00;52.93;;;7.70;99.90;;;;;;5068177;28;20519;-81
2022/02/23 10:01:46;;;;;;;380.07;51.80;;;7.70;99.90;;;;;;5051685;28;20472;-80
2022/02/23 10:04:17;;;;;;;216.20;39.03;;;7.80;99.90;;;;;;5051185;28;20456;-81
2022/02/23 10:06:46;;;;;;;405.07;54.47;;;7.80;99.90;;;;;;5051538;28;20472;-80
2022/02/23 10:09:15;;;;;;;426.73;41.87;;;7.90;99.90;;;;;;5085331;28;20453;-80
2022/02/23 10:11:48;;;;;;;126.70;38.10;;;7.90;99.90;;;;;;5052219;28;20846;-80
2022/02/23 10:14:16;;;;;;;421.83;59.60;;;8.00;99.90;;;;;;5052062;28;20478;-80
2022/02/23 10:16:47;;;;;;;333.23;45.40;;;8.00;99.90;;;;;;5051205;28;20456;-80
2022/02/23 10:19:18;;;;;;;513.73;58.90;;;8.00;99.90;;;;;;5069219;28;20445;-80
2022/02/23 10:21:49;;;;;;;451.43;47.07;;;8.00;99.90;;;;;;5084529;28;20994;-80
2022/02/23 10:24:28;;;;;;;428.97;51.27;;;8.00;99.90;;;;;;5083742;28;20455;-80
2022/02/23 10:27:04;;;;;;;335.63;47.87;;;8.10;99.90;;;;;;5051364;28;20538;-80
2022/02/23 10:29:35;;;;;;;270.70;37.40;;;8.20;99.90;;;;;;5051027;28;20452;-80
2022/02/23 10:32:09;;;;;;;256.03;36.77;;;8.20;99.90;;;;;;5051903;28;20547;-80
2022/02/23 10:34:39;;;;;;;172.90;30.70;;;8.20;99.90;;;;;;5085750;28;20528;-81
2022/02/23 10:37:16;;;;;;;249.00;45.60;;;8.30;99.90;;;;;;5051916;28;20476;-80
2022/02/23 10:39:47;;;;;;;34.30;12.33;;;8.30;99.90;;;;;;5052017;28;20487;-80
2022/02/23 10:42:20;;;;;;;234.60;50.17;;;8.40;99.90;;;;;;5052100;28;20479;-80
2022/02/23 10:44:51;;;;;;;217.60;46.43;;;8.40;99.90;;;;;;5070117;28;20464;-80
2022/02/23 10:47:24;;;;;;;364.07;61.50;;;8.50;99.90;;;;;;5051673;28;20453;-81
2022/02/23 10:50:01;;;;;;;341.47;75.23;;;8.50;99.90;;;;;;5052050;28;20445;-81
2022/02/23 10:52:31;;;;;;;429.03;66.33;;;8.60;99.90;;;;;;5070016;28;20468;-81
2022/02/23 10:55:23;;;;;;;352.97;66.50;;;8.60;99.90;;;;;;5051887;28;20480;-80
2022/02/23 10:57:56;;;;;;;358.17;83.27;;;8.70;99.90;;;;;;5051940;28;20911;-81
2022/02/23 11:00:27;;;;;;;417.33;82.03;;;8.70;99.90;;;;;;5051286;28;20462;-81
2022/02/23 11:02:56;;;;;;;489.70;105.10;;;8.80;99.90;;;;;;5052466;28;20469;-81
2022/02/23 11:05:26;;;;;;;367.97;87.17;;;8.80;99.90;;;;;;5051504;28;20461;-81
2022/02/23 11:07:57;;;;;;;323.90;64.47;;;8.90;99.90;;;;;;5068394;28;20442;-81
2022/02/23 11:10:26;;;;;;;284.03;83.87;;;8.90;99.90;;;;;;5049602;28;20448;-80
2022/02/23 11:12:57;;;;;;;366.57;79.53;;;9.00;99.90;;;;;;5067637;28;20476;-81
2022/02/23 11:15:28;;;;;;;719.17;154.53;;;9.00;99.90;;;;;;5084568;28;20536;-80
2022/02/23 11:17:58;;;;;;;166.83;71.77;;;9.10;99.90;;;;;;5045634;28;20529;-80
2022/02/23 11:20:29;;;;;;;336.53;110.97;;;9.20;99.90;;;;;;5045485;28;20510;-80
2022/02/23 11:23:00;;;;;;;136.30;77.07;;;9.20;99.90;;;;;;5050078;28;21077;-80
2022/02/23 11:25:32;;;;;;;261.23;106.67;;;9.20;99.90;;;;;;5082810;28;20469;-80
2022/02/23 11:28:08;;;;;;;409.50;154.87;;;9.30;99.90;;;;;;5050122;28;20448;-80
2022/02/23 11:30:37;;;;;;;216.00;79.93;;;9.30;99.90;;;;;;5049201;28;20465;-81
2022/02/23 11:33:06;;;;;;;689.67;194.43;;;9.40;99.90;;;;;;5082366;28;20452;-81
2022/02/23 11:35:54;;;;;;;350.97;135.67;;;9.40;99.90;;;;;;5049252;28;20484;-81
2022/02/23 11:38:29;;;;;;;574.70;148.07;;;9.50;99.90;;;;;;5082516;28;20454;-80
2022/02/23 11:40:59;;;;;;;894.33;235.10;;;9.50;99.90;;;;;;5050446;28;20475;-81
2022/02/23 11:43:33;;;;;;;903.73;233.97;;;9.60;99.90;;;;;;5049449;28;20453;-80
2022/02/23 11:46:06;;;;;;;858.03;233.80;;;9.60;99.90;;;;;;5049983;28;20462;-81
2022/02/23 11:48:49;;;;;;;539.43;164.90;;;9.50;99.90;;;;;;5049529;28;20441;-80
2022/02/23 11:51:25;;;;;;;386.93;140.47;;;9.60;99.90;;;;;;5049759;28;20473;-80
2022/02/23 11:53:54;;;;;;;600.97;165.20;;;9.60;99.90;;;;;;5048796;28;20489;-82
2022/02/23 11:56:22;;;;;;;753.97;193.30;;;9.70;99.90;;;;;;5061455;28;20568;-83
2022/02/23 11:59:45;;;;;;;1016.40;300.40;;;9.70;99.90;;;;;;5060893;28;20470;-83
2022/02/23 12:02:14;;;;;;;1235.87;304.17;;;9.80;99.90;;;;;;5076449;28;20505;-83
2022/02/23 12:04:50;;;;;;;1601.73;429.00;;;9.80;99.90;;;;;;5042643;28;20456;-83
2022/02/23 12:07:20;;;;;;;1081.73;293.10;;;9.90;99.90;;;;;;5060454;28;20453;-83
2022/02/23 12:10:10;;;;;;;1425.87;406.40;;;9.90;99.90;;;;;;5061817;28;20556;-83
2022/02/23 12:12:40;;;;;;;1999.90;707.27;;;10.00;99.90;;;;;;5043523;28;20482;-83
2022/02/23 12:15:11;;;;;;;1999.90;767.23;;;10.00;99.90;;;;;;5044200;28;20843;-83
2022/02/23 12:17:50;;;;;;;1999.90;652.17;;;10.00;99.90;;;;;;5045991;28;20446;-81
2022/02/23 12:20:52;;;;;;;1999.90;676.40;;;10.10;99.90;;;;;;5048627;28;20434;-80
2022/02/23 12:23:40;;;;;;;1999.90;622.63;;;10.20;99.90;;;;;;5067240;28;20442;-81
2022/02/23 12:26:23;;;;;;;1999.90;713.37;;;10.20;99.90;;;;;;5049061;28;20492;-80
2022/02/23 12:28:54;;;;;;;1999.90;802.27;;;10.20;99.90;;;;;;5050374;28;20442;-80
2022/02/23 12:31:32;;;;;;;1999.90;505.37;;;10.30;99.90;;;;;;5067066;28;20488;-80
2022/02/23 12:34:05;;;;;;;1999.90;800.20;;;10.40;99.90;;;;;;5049076;28;20501;-80
2022/02/23 12:36:51;;;;;;;1999.90;999.90;;;10.40;99.90;;;;;;5065746;28;20466;-80
2022/02/23 12:39:22;;;;;;;1999.90;896.80;;;10.40;99.90;;;;;;5078571;28;20445;-80
2022/02/23 12:41:54;;;;;;;1999.90;578.47;;;10.50;99.90;;;;;;5082062;28;20995;-81
2022/02/23 12:44:27;;;;;;;1999.90;626.67;;;10.50;99.90;;;;;;5050198;28;20445;-81